createdAt,value
2022-08-07T00:00:29.068Z,101386.18359375
2022-08-07T00:01:44.256Z,101389.4375
2022-08-07T00:02:40.559Z,101391.1953125
2022-08-07T00:03:29.097Z,101389.1171875
2022-08-07T00:04:29.142Z,101386.63671875
2022-08-07T00:05:28.986Z,101390.4140625
2022-08-07T00:06:33.454Z,101387.5
2022-08-07T00:07:36.885Z,101384.02734375
2022-08-07T00:08:28.969Z,101382.2890625
2022-08-07T00:09:35.648Z,101381.8828125
2022-08-07T00:10:29.600Z,101379.9375
2022-08-07T00:11:29.954Z,101379.03515625
2022-08-07T00:12:29.007Z,101376.6171875
2022-08-07T00:13:28.965Z,101379.0078125
2022-08-07T00:14:30.364Z,101379.0078125
2022-08-07T00:15:37.844Z,101376.13671875
2022-08-07T00:16:28.991Z,101375.5078125
2022-08-07T00:17:35.249Z,101372.21875
2022-08-07T00:18:29.091Z,101369.6484375
2022-08-07T00:20:00.359Z,101367.8984375
2022-08-07T00:20:29.986Z,101369.21875
2022-08-07T00:21:57.225Z,101367.5078125
2022-08-07T00:22:35.398Z,101366.12890625
2022-08-07T00:23:30.147Z,101363.66796875
2022-08-07T00:24:28.933Z,101358.875
2022-08-07T00:25:28.969Z,101361.9140625
2022-08-07T00:26:49.363Z,101359.3828125
2022-08-07T00:27:35.740Z,101355.52734375
2022-08-07T00:28:34.097Z,101356.21875
2022-08-07T00:29:31.480Z,101357.07421875
2022-08-07T00:30:29.048Z,101359.65234375
2022-08-07T00:31:38.132Z,101363.171875
2022-08-07T00:32:29.322Z,101358.24609375
2022-08-07T00:33:28.903Z,101358.31640625
2022-08-07T00:34:28.892Z,101361.09375
2022-08-07T00:35:29.678Z,101354.59375
2022-08-07T00:36:29.264Z,101360.09765625
2022-08-07T00:37:29.417Z,101362.18359375
2022-08-07T00:38:31.338Z,101364.48046875
2022-08-07T00:39:32.056Z,101363.80859375
2022-08-07T00:40:36.257Z,101361.2890625
2022-08-07T00:41:28.966Z,101361.5546875
2022-08-07T00:42:29.393Z,101364.47265625
2022-08-07T00:43:59.717Z,101360.3515625
2022-08-07T00:44:29.308Z,101357.609375
2022-08-07T00:45:28.987Z,101359.1875
2022-08-07T00:46:29.318Z,101361.828125
2022-08-07T00:48:07.964Z,101361.53515625
2022-08-07T00:48:31.926Z,101360.609375
2022-08-07T00:50:20.774Z,101359.6796875
2022-08-07T00:50:46.708Z,101358.5625
2022-08-07T00:51:57.112Z,101361.6171875
2022-08-07T00:52:29.079Z,101355.78515625
2022-08-07T00:53:39.416Z,101360.01953125
2022-08-07T00:54:29.002Z,101357.3203125
2022-08-07T00:56:02.707Z,101356.01953125
2022-08-07T00:56:30.392Z,101352.48828125
2022-08-07T00:57:29.179Z,101355.93359375
2022-08-07T00:58:29.092Z,101354.4609375
2022-08-07T00:59:35.426Z,101356.28125
2022-08-07T01:00:29.056Z,101357.98046875
2022-08-07T01:01:44.035Z,101357.47265625
2022-08-07T01:02:29.674Z,101357.609375
2022-08-07T01:03:54.624Z,101354.37890625
2022-08-07T01:04:30.244Z,101356.0859375
2022-08-07T01:05:28.972Z,101352.3046875
2022-08-07T01:06:29.249Z,101352.5625
2022-08-07T01:07:30.979Z,101349.9375
2022-08-07T01:08:29.035Z,101355.84375
2022-08-07T01:10:04.196Z,101350.87890625
2022-08-07T01:10:28.982Z,101352.02734375
2022-08-07T01:12:23.499Z,101349.8671875
2022-08-07T01:12:34.930Z,101353.30078125
2022-08-07T01:13:29.083Z,101352.28515625
2022-08-07T01:14:29.241Z,101351.01953125
2022-08-07T01:16:00.712Z,101347.4609375
2022-08-07T01:16:30.070Z,101352.94921875
2022-08-07T01:17:29.540Z,101350.2734375
2022-08-07T01:18:28.960Z,101348.4375
2022-08-07T01:19:32.630Z,101349.1953125
2022-08-07T01:20:30.841Z,101349.86328125
2022-08-07T01:21:28.967Z,101346.3046875
2022-08-07T01:22:29.651Z,101347.9375
2022-08-07T01:23:36.346Z,101345.0078125
2022-08-07T01:24:29.095Z,101343.72265625
2022-08-07T01:25:53.646Z,101344.94921875
2022-08-07T01:26:29.276Z,101344.3984375
2022-08-07T01:27:32.361Z,101342.73828125
2022-08-07T01:28:28.896Z,101342.453125
2022-08-07T01:29:31.312Z,101344.4609375
2022-08-07T01:30:29.070Z,101344.390625
2022-08-07T01:31:30.001Z,101340.8359375
2022-08-07T01:32:29.078Z,101338.00390625
2022-08-07T01:33:53.488Z,101336.578125
2022-08-07T01:34:31.937Z,101337.8671875
2022-08-07T01:35:53.536Z,101336.421875
2022-08-07T01:36:33.654Z,101335.7890625
2022-08-07T01:37:29.528Z,101336.23828125
2022-08-07T01:38:29.185Z,101336.26171875
2022-08-07T01:39:39.599Z,101341.9375
2022-08-07T01:40:31.900Z,101342.34765625
2022-08-07T01:41:29.026Z,101339.68359375
2022-08-07T01:42:40.249Z,101340.9765625
2022-08-07T01:43:34.578Z,101341.7734375
2022-08-07T01:44:29.349Z,101339.9375
2022-08-07T01:45:36.374Z,101340.8828125
2022-08-07T01:46:29.234Z,101343.0859375
2022-08-07T01:48:20.039Z,101342.8515625
2022-08-07T01:48:30.552Z,101339.6640625
2022-08-07T01:49:28.885Z,101338.55859375
2022-08-07T01:50:29.346Z,101343.3046875
2022-08-07T01:52:02.524Z,101341.75390625
2022-08-07T01:52:29.076Z,101345.484375
2022-08-07T01:54:11.925Z,101341.59765625
2022-08-07T01:54:36.379Z,101342.23046875
2022-08-07T01:55:29.000Z,101343.94921875
2022-08-07T01:56:29.238Z,101338.55859375
2022-08-07T01:57:29.026Z,101345.28515625
2022-08-07T01:58:33.059Z,101337.484375
2022-08-07T01:59:31.046Z,101340.48046875
2022-08-07T02:00:29.216Z,101340.87890625
2022-08-07T02:02:02.494Z,101340.01171875
2022-08-07T02:03:11.653Z,101341.71484375
2022-08-07T02:03:32.037Z,101340.01953125
2022-08-07T02:04:30.370Z,101342.4296875
2022-08-07T02:05:47.768Z,101339.37109375
2022-08-07T02:06:31.344Z,101337.9609375
2022-08-07T02:07:36.176Z,101334.86328125
2022-08-07T02:08:29.031Z,101336.140625
2022-08-07T02:09:51.669Z,101336.20703125
2022-08-07T02:10:28.913Z,101336.703125
2022-08-07T02:11:30.690Z,101336.58984375
2022-08-07T02:12:31.150Z,101333.90234375
2022-08-07T02:13:57.567Z,101335.4140625
2022-08-07T02:14:36.217Z,101334.2578125
2022-08-07T02:15:29.071Z,101334.9765625
2022-08-07T02:16:33.344Z,101332.69140625
2022-08-07T02:17:31.830Z,101332.59375
2022-08-07T02:18:29.936Z,101332.484375
2022-08-07T02:20:05.177Z,101334.2265625
2022-08-07T02:20:29.019Z,101326.24609375
2022-08-07T02:21:56.787Z,101329.671875
2022-08-07T02:22:29.080Z,101328.09375
2022-08-07T02:23:29.020Z,101331.12109375
2022-08-07T02:24:31.974Z,101331.2578125
2022-08-07T02:26:10.770Z,101328.8046875
2022-08-07T02:26:33.072Z,101333.0078125
2022-08-07T02:27:34.370Z,101334.421875
2022-08-07T02:28:29.064Z,101333.6640625
2022-08-07T02:29:29.322Z,101334.25
2022-08-07T02:30:28.889Z,101332.68359375
2022-08-07T02:31:29.570Z,101332.4921875
2022-08-07T02:32:30.004Z,101334.6875
2022-08-07T02:33:32.834Z,101331.890625
2022-08-07T02:34:29.064Z,101330.94921875
2022-08-07T02:36:30.568Z,101331.40625
2022-08-07T02:36:32.726Z,101332.30078125
2022-08-07T02:37:34.069Z,101331.4921875
2022-08-07T02:38:31.798Z,101333.609375
2022-08-07T02:39:43.636Z,101326.4375
2022-08-07T02:40:33.251Z,101332.90625
2022-08-07T02:41:33.504Z,101332.8359375
2022-08-07T02:42:29.023Z,101336.23046875
2022-08-07T02:43:29.073Z,101339.453125
2022-08-07T02:44:34.843Z,101337.9140625
2022-08-07T02:46:00.331Z,101332.5859375
2022-08-07T02:46:34.960Z,101332.00390625
2022-08-07T02:47:29.053Z,101334.4140625
2022-08-07T02:48:29.022Z,101330.68359375
2022-08-07T02:49:57.644Z,101328.609375
2022-08-07T02:50:30.883Z,101328.6796875
2022-08-07T02:51:42.785Z,101326.9453125
2022-08-07T02:52:32.035Z,101326.765625
2022-08-07T02:53:28.994Z,101325.46484375
2022-08-07T02:54:28.967Z,101327.77734375
2022-08-07T02:56:03.622Z,101323.78125
2022-08-07T02:56:29.349Z,101327.203125
2022-08-07T02:57:34.247Z,101326.12890625
2022-08-07T02:58:29.009Z,101323.0625
2022-08-07T02:59:29.247Z,101326.26171875
2022-08-07T03:00:30.385Z,101323.8359375
2022-08-07T03:01:36.353Z,101321.93359375
2022-08-07T03:02:28.889Z,101325.09765625
2022-08-07T03:03:29.598Z,101319.640625
2022-08-07T03:04:29.021Z,101324.4140625
2022-08-07T03:05:35.738Z,101317.81640625
2022-08-07T03:06:33.294Z,101321.1875
2022-08-07T03:08:05.261Z,101319.41015625
2022-08-07T03:08:31.995Z,101315.71875
2022-08-07T03:09:43.377Z,101318.90234375
2022-08-07T03:10:29.031Z,101316.53515625
2022-08-07T03:11:29.240Z,101318.20703125
2022-08-07T03:12:31.034Z,101314.67578125
2022-08-07T03:13:29.021Z,101320.01171875
2022-08-07T03:14:29.238Z,101317.83203125
2022-08-07T03:15:47.657Z,101317.39453125
2022-08-07T03:16:29.244Z,101316.51953125
2022-08-07T03:17:29.386Z,101316.33984375
2022-08-07T03:18:34.900Z,101317.4296875
2022-08-07T03:19:37.028Z,101313.4375
2022-08-07T03:20:29.060Z,101316.61328125
2022-08-07T03:21:32.826Z,101310.8359375
2022-08-07T03:22:30.198Z,101310.78515625
2022-08-07T03:23:33.652Z,101312.984375
2022-08-07T03:24:29.032Z,101308.5546875
2022-08-07T03:25:32.445Z,101312.3359375
2022-08-07T03:26:29.314Z,101312.01171875
2022-08-07T03:27:30.620Z,101309.15625
2022-08-07T03:28:38.344Z,101307.453125
2022-08-07T03:29:29.238Z,101310.453125
2022-08-07T03:30:29.021Z,101310.23046875
2022-08-07T03:31:42.404Z,101309.1796875
2022-08-07T03:32:29.007Z,101313.23828125
2022-08-07T03:33:32.316Z,101306.87109375
2022-08-07T03:34:29.042Z,101306.97265625
2022-08-07T03:35:43.946Z,101304.6640625
2022-08-07T03:36:29.363Z,101303.90625
2022-08-07T03:37:29.178Z,101304.63671875
2022-08-07T03:38:31.121Z,101309.19921875
2022-08-07T03:39:46.456Z,101308.01171875
2022-08-07T03:40:30.939Z,101304.69140625
2022-08-07T03:41:42.173Z,101309.0078125
2022-08-07T03:42:29.020Z,101306.33984375
2022-08-07T03:43:32.285Z,101308.6328125
2022-08-07T03:44:34.259Z,101309.52734375
2022-08-07T03:45:30.427Z,101308.6328125
2022-08-07T03:46:34.872Z,101308.359375
2022-08-07T03:47:29.654Z,101308.5078125
2022-08-07T03:48:29.686Z,101312.85546875
2022-08-07T03:49:28.980Z,101309.203125
2022-08-07T03:50:29.119Z,101306.546875
2022-08-07T03:51:30.937Z,101304.29296875
2022-08-07T03:52:29.011Z,101304.48046875
2022-08-07T03:54:00.812Z,101303.8046875
2022-08-07T03:54:35.488Z,101306.6171875
2022-08-07T03:55:52.887Z,101306.1796875
2022-08-07T03:56:33.443Z,101306.62109375
2022-08-07T03:58:32.541Z,101304.73828125
2022-08-07T03:59:05.064Z,101302.9375
2022-08-07T03:59:29.329Z,101306.2890625
2022-08-07T04:00:33.217Z,101302.83203125
2022-08-07T04:01:29.335Z,101307.66015625
2022-08-07T04:02:29.060Z,101310.5078125
2022-08-07T04:03:28.974Z,101308.04296875
2022-08-07T04:04:28.990Z,101311.609375
2022-08-07T04:05:40.231Z,101312.66015625
2022-08-07T04:06:37.040Z,101312.72265625
2022-08-07T04:07:41.815Z,101314.81640625
2022-08-07T04:08:31.981Z,101317.6171875
2022-08-07T04:09:38.092Z,101316.0546875
2022-08-07T04:10:29.506Z,101316.73828125
2022-08-07T04:12:27.062Z,101318.3203125
2022-08-07T04:12:29.210Z,101315.48046875
2022-08-07T04:13:29.103Z,101315.96875
2022-08-07T04:14:39.044Z,101318.33984375
2022-08-07T04:15:28.975Z,101317.2265625
2022-08-07T04:16:31.585Z,101316.3671875
2022-08-07T04:18:56.346Z,101317.0078125
2022-08-07T04:18:57.225Z,101320.0390625
2022-08-07T04:19:34.120Z,101321.25390625
2022-08-07T04:20:29.102Z,101320.48046875
2022-08-07T04:21:31.191Z,101317.55859375
2022-08-07T04:22:30.008Z,101319.11328125
2022-08-07T04:23:43.723Z,101318.7265625
2022-08-07T04:24:33.653Z,101318.28125
2022-08-07T04:25:29.552Z,101324.44140625
2022-08-07T04:26:29.312Z,101322.734375
2022-08-07T04:27:29.075Z,101319.875
2022-08-07T04:28:28.992Z,101322.65234375
2022-08-07T04:29:30.471Z,101320.6796875
2022-08-07T04:30:43.675Z,101324.9609375
2022-08-07T04:31:38.667Z,101328.83203125
2022-08-07T04:32:33.945Z,101330.12109375
2022-08-07T04:33:28.959Z,101327.984375
2022-08-07T04:34:33.229Z,101331.828125
2022-08-07T04:35:35.348Z,101329.84765625
2022-08-07T04:36:29.246Z,101330.14453125
2022-08-07T04:37:28.906Z,101327.11328125
2022-08-07T04:38:28.971Z,101330.734375
2022-08-07T04:39:29.091Z,101332.76953125
2022-08-07T04:40:29.963Z,101333.64453125
2022-08-07T04:41:37.001Z,101332.4296875
2022-08-07T04:42:29.081Z,101331.22265625
2022-08-07T04:44:12.443Z,101334.73046875
2022-08-07T04:44:29.251Z,101335.7890625
2022-08-07T04:45:57.941Z,101337.04296875
2022-08-07T04:46:34.390Z,101335.79296875
2022-08-07T04:48:01.343Z,101337.65234375
2022-08-07T04:48:28.899Z,101339.3359375
2022-08-07T04:49:29.332Z,101342.26953125
2022-08-07T04:50:28.976Z,101338.40234375
2022-08-07T04:51:29.315Z,101339.171875
2022-08-07T04:52:31.987Z,101337.609375
2022-08-07T04:53:40.171Z,101337.32421875
2022-08-07T04:54:30.258Z,101341.37890625
2022-08-07T04:58:10.890Z,101339.26171875
2022-08-07T04:58:13.258Z,101341.56640625
2022-08-07T04:58:33.785Z,101336.4453125
2022-08-07T05:00:12.686Z,101343.8671875
2022-08-07T05:00:17.285Z,101339.19140625
2022-08-07T05:01:18.236Z,101338.41796875
2022-08-07T05:02:16.897Z,101345.4765625
2022-08-07T05:03:59.676Z,101339.89453125
2022-08-07T05:04:17.405Z,101345.09765625
2022-08-07T05:05:52.631Z,101344.3203125
2022-08-07T05:06:19.374Z,101342.25
2022-08-07T05:07:19.998Z,101342.66015625
2022-08-07T05:08:15.718Z,101344.26171875
2022-08-07T05:09:15.780Z,101348.4296875
2022-08-07T05:10:15.739Z,101347.22265625
2022-08-07T05:11:19.300Z,101349.69140625
2022-08-07T05:12:15.764Z,101348.96875
2022-08-07T05:14:52.970Z,101347.97265625
2022-08-07T05:14:53.106Z,101350.90625
2022-08-07T05:16:04.620Z,101347.765625
2022-08-07T05:17:05.925Z,101345.71484375
2022-08-07T05:18:08.639Z,101347.4765625
2022-08-07T05:19:02.315Z,101351.859375
2022-08-07T05:20:05.400Z,101347.88671875
2022-08-07T05:21:08.253Z,101351.19921875
2022-08-07T05:22:04.728Z,101354.19921875
2022-08-07T05:23:02.289Z,101355.6875
2022-08-07T05:24:02.310Z,101355.78515625
2022-08-07T05:25:02.247Z,101353.6015625
2022-08-07T05:26:13.625Z,101355.36328125
2022-08-07T05:27:02.272Z,101355.453125
2022-08-07T05:28:20.036Z,101356.23046875
2022-08-07T05:29:04.111Z,101358.56640625
2022-08-07T05:30:02.619Z,101355.203125
2022-08-07T05:31:03.631Z,101351.5
2022-08-07T05:32:05.308Z,101358.02734375
2022-08-07T05:33:02.583Z,101355.38671875
2022-08-07T05:34:05.870Z,101355.8203125
2022-08-07T05:35:02.369Z,101353.73046875
2022-08-07T05:36:02.616Z,101355.375
2022-08-07T05:37:02.384Z,101357.22265625
2022-08-07T05:38:09.108Z,101361.84765625
2022-08-07T05:40:05.710Z,101362.2109375
2022-08-07T05:40:14.282Z,101361.3828125
2022-08-07T05:41:12.298Z,101365.30859375
2022-08-07T05:42:05.282Z,101366.2734375
2022-08-07T05:43:05.272Z,101365.05078125
2022-08-07T05:44:08.334Z,101370.48828125
2022-08-07T05:45:14.705Z,101364.1875
2022-08-07T05:46:02.546Z,101367.08984375
2022-08-07T05:47:17.890Z,101367.66015625
2022-08-07T05:48:03.105Z,101363.33984375
2022-08-07T05:49:11.632Z,101363.796875
2022-08-07T05:50:02.271Z,101361.3984375
2022-08-07T05:51:03.294Z,101364.046875
2022-08-07T05:52:02.301Z,101359.44921875
2022-08-07T05:53:02.218Z,101355.58203125
2022-08-07T05:54:13.457Z,101350.05859375
2022-08-07T05:55:07.261Z,101343.2890625
2022-08-07T05:56:05.572Z,101348.47265625
2022-08-07T05:57:02.358Z,101348.06640625
2022-08-07T05:58:02.375Z,101350.3984375
2022-08-07T05:59:02.312Z,101346.9609375
2022-08-07T06:00:02.537Z,101350.03515625
2022-08-07T06:01:05.049Z,101352.8046875
2022-08-07T06:02:02.464Z,101352.703125
2022-08-07T06:03:02.369Z,101356.08984375
2022-08-07T06:04:02.296Z,101356.4453125
2022-08-07T06:05:05.634Z,101355.7421875
2022-08-07T06:06:02.559Z,101359.4453125
2022-08-07T06:07:03.915Z,101360.64453125
2022-08-07T06:08:14.135Z,101355.8515625
2022-08-07T06:09:04.597Z,101356.75390625
2022-08-07T06:10:05.098Z,101361.6015625
2022-08-07T06:11:03.833Z,101360.83203125
2022-08-07T06:12:02.200Z,101354.14453125
2022-08-07T06:13:02.428Z,101354.78125
2022-08-07T06:14:12.466Z,101357.125
2022-08-07T06:15:05.647Z,101357.390625
2022-08-07T06:16:08.245Z,101354.53125
2022-08-07T06:17:02.381Z,101357.12109375
2022-08-07T06:18:02.280Z,101356.09375
2022-08-07T06:19:02.492Z,101353.44921875
2022-08-07T06:20:04.041Z,101354.09375
2022-08-07T06:22:14.759Z,101360.16015625
2022-08-07T06:22:16.781Z,101356.41015625
2022-08-07T06:23:25.046Z,101357.69140625
2022-08-07T06:24:45.438Z,101355.6953125
2022-08-07T06:25:02.949Z,101354.5234375
2022-08-07T06:26:02.552Z,101357.3125
2022-08-07T06:27:03.783Z,101358.01953125
2022-08-07T06:28:02.738Z,101360.0859375
2022-08-07T06:29:02.322Z,101356.5703125
2022-08-07T06:30:02.540Z,101358.8671875
2022-08-07T06:31:02.550Z,101359.7265625
2022-08-07T06:32:02.344Z,101357.828125
2022-08-07T06:33:05.307Z,101356.19140625
2022-08-07T06:34:02.365Z,101357.8203125
2022-08-07T06:35:02.184Z,101354.49609375
2022-08-07T06:36:06.829Z,101352.4140625
2022-08-07T06:37:02.800Z,101353.984375
2022-08-07T06:38:02.354Z,101354.7734375
2022-08-07T06:40:16.668Z,101346.1484375
2022-08-07T06:40:16.777Z,101352.29296875
2022-08-07T06:41:02.702Z,101351.296875
2022-08-07T06:42:03.458Z,101345.94140625
2022-08-07T06:43:02.366Z,101350.4140625
2022-08-07T06:44:06.671Z,101343.421875
2022-08-07T06:45:02.555Z,101338.83203125
2022-08-07T06:46:02.359Z,101341.63671875
2022-08-07T06:47:12.245Z,101343.2265625
2022-08-07T06:48:02.395Z,101343.265625
2022-08-07T06:49:04.037Z,101344.07421875
2022-08-07T06:50:03.926Z,101343.8828125
2022-08-07T06:51:08.251Z,101341.51171875
2022-08-07T06:52:07.233Z,101340.30078125
2022-08-07T06:53:04.088Z,101337.7265625
2022-08-07T06:55:31.288Z,101339.6875
2022-08-07T06:55:33.576Z,101339.265625
2022-08-07T06:56:50.553Z,101335.82421875
2022-08-07T06:57:51.995Z,101334.24609375
2022-08-07T07:00:13.124Z,101339.40234375
2022-08-07T07:00:13.436Z,101336.3515625
2022-08-07T07:00:49.008Z,101336.8203125
2022-08-07T07:01:55.101Z,101338.3203125
2022-08-07T07:02:53.985Z,101336.47265625
2022-08-07T07:03:57.238Z,101334.6171875
2022-08-07T07:04:54.888Z,101337.1484375
2022-08-07T07:06:05.488Z,101336.22265625
2022-08-07T07:07:00.792Z,101340.02734375
2022-08-07T07:07:58.313Z,101346.078125
2022-08-07T07:08:49.048Z,101337.69140625
2022-08-07T07:09:49.102Z,101336.12109375
2022-08-07T07:10:56.475Z,101338.9765625
2022-08-07T07:12:07.968Z,101341.10546875
2022-08-07T07:12:53.590Z,101335.44140625
2022-08-07T07:13:58.741Z,101337.6640625
2022-08-07T07:14:49.320Z,101337.26171875
2022-08-07T07:15:51.769Z,101333.43359375
2022-08-07T07:16:50.797Z,101335.27734375
2022-08-07T07:17:50.527Z,101334.48828125
2022-08-07T07:18:49.001Z,101335.61328125
2022-08-07T07:19:58.031Z,101336.62890625
2022-08-07T07:20:50.178Z,101341.11328125
2022-08-07T07:22:04.634Z,101333.671875
2022-08-07T07:24:08.029Z,101341.484375
2022-08-07T07:24:08.992Z,101331.703125
2022-08-07T07:24:56.875Z,101333.9375
2022-08-07T07:26:35.244Z,101333.77734375
2022-08-07T07:26:52.060Z,101333.65625
2022-08-07T07:27:55.683Z,101337.265625
2022-08-07T07:29:56.491Z,101340.65234375
2022-08-07T07:30:09.077Z,101337.9921875
2022-08-07T07:30:49.380Z,101336.58984375
2022-08-07T07:31:49.143Z,101341.47265625
2022-08-07T07:32:49.142Z,101336.0703125
2022-08-07T07:33:56.411Z,101341.0859375
2022-08-07T07:34:51.991Z,101338.7578125
2022-08-07T07:36:03.901Z,101335.73046875
2022-08-07T07:36:54.051Z,101333.2734375
2022-08-07T07:38:02.103Z,101331.93359375
2022-08-07T07:38:49.012Z,101331.625
2022-08-07T07:39:52.554Z,101320.36328125
2022-08-07T07:40:49.312Z,101323.4140625
2022-08-07T07:41:50.860Z,101329.0859375
2022-08-07T07:42:53.768Z,101328.40625
2022-08-07T07:44:17.340Z,101335.6171875
2022-08-07T07:44:49.372Z,101328.4921875
2022-08-07T07:46:37.036Z,101324.93359375
2022-08-07T07:46:56.072Z,101322.2578125
2022-08-07T07:47:52.709Z,101322.4140625
2022-08-07T07:48:49.084Z,101320.30859375
2022-08-07T07:50:32.692Z,101315.26953125
2022-08-07T07:50:48.992Z,101316.625
2022-08-07T07:51:58.044Z,101314.21875
2022-08-07T07:52:49.060Z,101311.0625
2022-08-07T07:53:52.482Z,101313.81640625
2022-08-07T07:54:51.183Z,101316.82421875
2022-08-07T07:55:57.482Z,101318.58984375
2022-08-07T07:56:51.989Z,101326.578125
2022-08-07T07:57:52.937Z,101324.6875
2022-08-07T07:58:48.987Z,101322.91015625
2022-08-07T07:59:51.760Z,101323.25390625
2022-08-07T08:00:53.615Z,101323.890625
2022-08-07T08:02:02.469Z,101317.48828125
2022-08-07T08:03:01.074Z,101326.01953125
2022-08-07T08:04:06.430Z,101326.98828125
2022-08-07T08:04:50.428Z,101325.625
2022-08-07T08:05:54.957Z,101328.1328125
2022-08-07T08:06:51.956Z,101326.1640625
2022-08-07T08:08:00.881Z,101329.27734375
2022-08-07T08:08:49.140Z,101321.07421875
2022-08-07T08:09:52.563Z,101322.1015625
2022-08-07T08:10:49.295Z,101320.71875
2022-08-07T08:12:02.656Z,101318.54296875
2022-08-07T08:12:59.296Z,101320.9296875
2022-08-07T08:13:53.760Z,101319.13671875
2022-08-07T08:14:49.021Z,101317.19921875
2022-08-07T08:15:58.511Z,101317.48046875
2022-08-07T08:16:50.345Z,101321.19921875
2022-08-07T08:17:57.136Z,101316.5703125
2022-08-07T08:18:52.020Z,101321.640625
2022-08-07T08:20:17.644Z,101315.625
2022-08-07T08:20:49.376Z,101316.6484375
2022-08-07T08:21:55.815Z,101312.6796875
2022-08-07T08:22:54.359Z,101309.21875
2022-08-07T08:23:48.927Z,101313.3203125
2022-08-07T08:24:57.131Z,101314.83203125
2022-08-07T08:25:49.792Z,101311.6328125
2022-08-07T08:26:50.612Z,101309.7421875
2022-08-07T08:27:56.396Z,101314.1953125
2022-08-07T08:28:49.071Z,101312.0703125
2022-08-07T08:29:54.524Z,101305.7109375
2022-08-07T08:30:51.180Z,101307.609375
2022-08-07T08:32:17.056Z,101309.50390625
2022-08-07T08:32:49.903Z,101306.83203125
2022-08-07T08:33:55.291Z,101308.0078125
2022-08-07T08:34:49.035Z,101305.24609375
2022-08-07T08:35:49.853Z,101306.5625
2022-08-07T08:36:49.367Z,101304.3125
2022-08-07T08:38:00.814Z,101304.890625
2022-08-07T08:38:48.928Z,101302.25
2022-08-07T08:39:54.636Z,101302.9453125
2022-08-07T08:40:54.954Z,101300.0234375
2022-08-07T08:41:57.556Z,101302.44921875
2022-08-07T08:42:51.704Z,101300.37890625
2022-08-07T08:43:55.934Z,101298.63671875
2022-08-07T08:44:49.075Z,101297.94140625
2022-08-07T08:45:59.013Z,101297.6953125
2022-08-07T08:46:49.162Z,101298.07421875
2022-08-07T08:47:52.507Z,101296.5234375
2022-08-07T08:48:51.051Z,101298.046875
2022-08-07T08:50:02.554Z,101297.4140625
2022-08-07T08:50:49.377Z,101291.01953125
2022-08-07T08:52:14.057Z,101295.83203125
2022-08-07T08:52:54.321Z,101301.40234375
2022-08-07T08:53:49.052Z,101297.14453125
2022-08-07T08:54:49.106Z,101297.5234375
2022-08-07T08:55:53.143Z,101295.16015625
2022-08-07T08:56:49.150Z,101287.8125
2022-08-07T08:57:52.065Z,101292.4921875
2022-08-07T08:58:50.670Z,101291.59375
2022-08-07T08:59:50.359Z,101289.1640625
2022-08-07T09:00:51.724Z,101291.015625
2022-08-07T09:01:49.721Z,101288.89453125
2022-08-07T09:02:49.656Z,101294.05078125
2022-08-07T09:03:52.648Z,101283.765625
2022-08-07T09:04:49.061Z,101285.03515625
2022-08-07T09:05:49.297Z,101286.859375
2022-08-07T09:06:49.298Z,101288.6953125
2022-08-07T09:07:57.984Z,101284.45703125
2022-08-07T09:08:51.990Z,101281.4921875
2022-08-07T09:09:49.019Z,101282
2022-08-07T09:10:49.297Z,101282.5
2022-08-07T09:11:53.622Z,101279.828125
2022-08-07T09:12:53.655Z,101280.4609375
2022-08-07T09:13:49.327Z,101277.62109375
2022-08-07T09:14:50.697Z,101276.65234375
2022-08-07T09:16:23.067Z,101279.2265625
2022-08-07T09:16:49.018Z,101278.359375
2022-08-07T09:17:59.368Z,101276.18359375
2022-08-07T09:18:53.358Z,101275.015625
2022-08-07T09:19:55.286Z,101274.34375
2022-08-07T09:20:58.519Z,101276.140625
2022-08-07T09:22:09.635Z,101275.6953125
2022-08-07T09:24:54.518Z,101271.90234375
2022-08-07T09:24:58.735Z,101266.8125
2022-08-07T09:25:35.958Z,101268.8828125
2022-08-07T09:26:35.639Z,101268.96484375
2022-08-07T09:27:54.534Z,101266.46484375
2022-08-07T09:30:05.297Z,101266.109375
2022-08-07T09:30:05.704Z,101266.6875
2022-08-07T09:30:35.879Z,101266.64453125
2022-08-07T09:31:38.467Z,101264.28515625
2022-08-07T09:32:35.600Z,101262.6484375
2022-08-07T09:33:41.154Z,101260.7734375
2022-08-07T09:34:35.765Z,101260.33984375
2022-08-07T09:36:03.405Z,101261.23828125
2022-08-07T09:36:37.222Z,101257.69921875
2022-08-07T09:37:53.677Z,101258.15234375
2022-08-07T09:38:35.688Z,101256.37890625
2022-08-07T09:39:53.833Z,101251.93359375
2022-08-07T09:40:35.931Z,101247.38671875
2022-08-07T09:41:58.406Z,101246.14453125
2022-08-07T09:42:35.679Z,101246.3046875
2022-08-07T09:44:05.254Z,101242.86328125
2022-08-07T09:45:03.607Z,101241.53125
2022-08-07T09:47:49.389Z,101241.140625
2022-08-07T09:47:50.261Z,101245.2109375
2022-08-07T09:48:28.741Z,101239.1171875
2022-08-07T09:50:02.147Z,101243.63671875
2022-08-07T09:50:22.107Z,101236.49609375
2022-08-07T09:52:15.776Z,101237.8671875
2022-08-07T09:52:34.141Z,101234.4921875
2022-08-07T09:53:22.193Z,101227.54296875
2022-08-07T09:54:22.081Z,101228.03125
2022-08-07T09:55:29.296Z,101224.8828125
2022-08-07T09:56:37.268Z,101219.9453125
2022-08-07T09:57:22.096Z,101222.04296875
2022-08-07T09:58:31.922Z,101217.6171875
2022-08-07T09:59:23.393Z,101220.609375
2022-08-07T10:00:29.741Z,101220.21875
2022-08-07T10:01:51.595Z,101218.17578125
2022-08-07T10:02:23.246Z,101220.6171875
2022-08-07T10:04:07.172Z,101216.04296875